createdAt,value
2022-09-15T00:00:35.962Z,14.27
2022-09-15T00:01:35.994Z,14.27
2022-09-15T00:02:36.050Z,14.27
2022-09-15T00:03:35.895Z,14.28
2022-09-15T00:04:35.896Z,14.29
2022-09-15T00:05:35.875Z,14.29
2022-09-15T00:06:35.864Z,14.31
2022-09-15T00:07:35.873Z,14.29
2022-09-15T00:08:35.839Z,14.31
2022-09-15T00:09:35.841Z,14.31
2022-09-15T00:10:35.827Z,14.29
2022-09-15T00:11:35.805Z,14.29
2022-09-15T00:12:35.800Z,14.29
2022-09-15T00:13:35.781Z,14.29
2022-09-15T00:14:35.770Z,14.31
2022-09-15T00:15:35.758Z,14.32
2022-09-15T00:16:35.831Z,14.31
2022-09-15T00:17:35.759Z,14.32
2022-09-15T00:18:35.724Z,14.32
2022-09-15T00:19:35.714Z,14.32
2022-09-15T00:20:35.717Z,14.34
2022-09-15T00:21:35.704Z,14.34
2022-09-15T00:22:35.714Z,14.35
2022-09-15T00:23:35.670Z,14.35
2022-09-15T00:24:35.676Z,14.38
2022-09-15T00:25:35.666Z,14.38
2022-09-15T00:26:35.650Z,14.38
2022-09-15T00:27:35.641Z,14.42
2022-09-15T00:28:35.611Z,14.38
2022-09-15T00:29:35.592Z,14.37
2022-09-15T00:30:35.643Z,14.35
2022-09-15T00:31:35.592Z,14.34
2022-09-15T00:32:35.565Z,14.35
2022-09-15T00:33:35.580Z,14.35
2022-09-15T00:34:35.540Z,14.32
2022-09-15T00:35:35.541Z,14.31
2022-09-15T00:36:35.521Z,14.31
2022-09-15T00:37:35.526Z,14.29
2022-09-15T00:38:35.485Z,14.31
2022-09-15T00:39:35.507Z,14.32
2022-09-15T00:40:35.466Z,14.34
2022-09-15T00:41:35.476Z,14.32
2022-09-15T00:42:35.451Z,14.34
2022-09-15T00:43:35.430Z,14.32
2022-09-15T00:44:35.425Z,14.28
2022-09-15T00:45:35.480Z,14.25
2022-09-15T00:46:35.408Z,14.27
2022-09-15T00:47:35.407Z,14.27
2022-09-15T00:48:35.388Z,14.28
2022-09-15T00:49:35.377Z,14.28
2022-09-15T00:50:35.367Z,14.28
2022-09-15T00:51:35.370Z,14.27
2022-09-15T00:52:35.336Z,14.29
2022-09-15T00:53:35.330Z,14.31
2022-09-15T00:54:35.317Z,14.31
2022-09-15T00:55:35.315Z,14.31
2022-09-15T00:56:35.291Z,14.31
2022-09-15T00:57:35.303Z,14.31
2022-09-15T00:58:35.266Z,14.31
2022-09-15T00:59:35.268Z,14.31
2022-09-15T01:00:35.261Z,14.32
2022-09-15T01:01:35.276Z,14.34
2022-09-15T01:02:35.279Z,14.35
2022-09-15T01:03:35.214Z,14.34
2022-09-15T01:04:35.206Z,14.35
2022-09-15T01:05:35.209Z,14.32
2022-09-15T01:06:35.171Z,14.31
2022-09-15T01:07:35.170Z,14.34
2022-09-15T01:08:35.148Z,14.32
2022-09-15T01:09:35.151Z,14.31
2022-09-15T01:10:35.149Z,14.32
2022-09-15T01:11:35.129Z,14.34
2022-09-15T01:12:35.120Z,14.32
2022-09-15T01:13:35.163Z,14.35
2022-09-15T01:14:35.090Z,14.35
2022-09-15T01:15:35.079Z,14.35
2022-09-15T01:16:35.110Z,14.34
2022-09-15T01:17:35.059Z,14.31
2022-09-15T01:18:35.060Z,14.32
2022-09-15T01:19:35.035Z,14.32
2022-09-15T01:20:35.035Z,14.32
2022-09-15T01:21:35.029Z,14.34
2022-09-15T01:22:34.996Z,14.32
2022-09-15T01:23:34.974Z,14.34
2022-09-15T01:24:34.962Z,14.34
2022-09-15T01:25:34.953Z,14.34
2022-09-15T01:26:34.963Z,14.32
2022-09-15T01:27:43.106Z,14.35
2022-09-15T01:28:35.943Z,14.34
2022-09-15T01:29:34.939Z,14.34
2022-09-15T01:30:34.897Z,14.34
2022-09-15T01:31:34.957Z,14.32
2022-09-15T01:32:34.886Z,14.34
2022-09-15T01:33:34.885Z,14.32
2022-09-15T01:34:34.857Z,14.34
2022-09-15T01:35:34.849Z,14.34
2022-09-15T01:36:34.825Z,14.37
2022-09-15T01:37:34.827Z,14.38
2022-09-15T01:38:34.826Z,14.38
2022-09-15T01:39:34.817Z,14.38
2022-09-15T01:40:34.935Z,14.37
2022-09-15T01:41:34.779Z,14.37
2022-09-15T01:42:34.769Z,14.37
2022-09-15T01:43:34.759Z,14.34
2022-09-15T01:44:34.759Z,14.34
2022-09-15T01:45:34.911Z,14.35
2022-09-15T01:46:34.748Z,14.35
2022-09-15T01:47:34.706Z,14.35
2022-09-15T01:48:34.699Z,14.35
2022-09-15T01:49:34.709Z,14.35
2022-09-15T01:50:34.679Z,14.34
2022-09-15T01:51:34.681Z,14.35
2022-09-15T01:52:34.651Z,14.34
2022-09-15T01:53:34.664Z,14.35
2022-09-15T01:54:34.659Z,14.34
2022-09-15T01:55:34.643Z,14.32
2022-09-15T01:56:34.603Z,14.32
2022-09-15T01:57:34.606Z,14.28
2022-09-15T01:58:34.583Z,14.29
2022-09-15T01:59:34.573Z,14.28
2022-09-15T02:00:34.570Z,14.27
2022-09-15T02:01:34.579Z,14.27
2022-09-15T02:02:34.563Z,14.27
2022-09-15T02:03:34.536Z,14.24
2022-09-15T02:04:34.527Z,14.24
2022-09-15T02:05:34.514Z,14.21
2022-09-15T02:06:34.488Z,14.24
2022-09-15T02:07:34.495Z,14.24
2022-09-15T02:08:34.468Z,14.24
2022-09-15T02:09:34.467Z,14.24
2022-09-15T02:10:35.397Z,14.24
2022-09-15T02:11:34.440Z,14.24
2022-09-15T02:12:34.439Z,14.24
2022-09-15T02:13:34.412Z,14.20
2022-09-15T02:14:34.399Z,14.20
2022-09-15T02:15:34.401Z,14.20
2022-09-15T02:16:34.491Z,14.20
2022-09-15T02:17:34.390Z,14.20
2022-09-15T02:18:34.354Z,14.20
2022-09-15T02:19:34.354Z,14.24
2022-09-15T02:20:34.337Z,14.24
2022-09-15T02:21:34.355Z,14.24
2022-09-15T02:22:34.313Z,14.21
2022-09-15T02:23:34.304Z,14.21
2022-09-15T02:24:34.319Z,14.24
2022-09-15T02:25:34.275Z,14.21
2022-09-15T02:26:34.282Z,14.21
2022-09-15T02:27:34.259Z,14.25
2022-09-15T02:28:34.236Z,14.27
2022-09-15T02:29:34.224Z,14.27
2022-09-15T02:30:34.221Z,14.25
2022-09-15T02:31:34.281Z,14.25
2022-09-15T02:32:34.195Z,14.24
2022-09-15T02:33:34.177Z,14.24
2022-09-15T02:34:34.176Z,14.20
2022-09-15T02:35:34.163Z,14.17
2022-09-15T02:36:34.151Z,14.17
2022-09-15T02:37:34.140Z,14.17
2022-09-15T02:38:34.127Z,14.16
2022-09-15T02:39:34.117Z,14.16
2022-09-15T02:40:34.223Z,14.16
2022-09-15T02:41:34.091Z,14.13
2022-09-15T02:42:34.082Z,14.10
2022-09-15T02:43:34.072Z,14.12
2022-09-15T02:44:34.073Z,14.13
2022-09-15T02:45:34.173Z,14.12
2022-09-15T02:46:34.036Z,14.16
2022-09-15T02:47:34.037Z,14.16
2022-09-15T02:48:34.036Z,14.14
2022-09-15T02:49:34.004Z,14.16
2022-09-15T02:50:33.995Z,14.17
2022-09-15T02:51:33.982Z,14.17
2022-09-15T02:52:33.962Z,14.17
2022-09-15T02:53:33.970Z,14.19
2022-09-15T02:54:33.943Z,14.16
2022-09-15T02:55:33.929Z,14.16
2022-09-15T02:56:33.913Z,14.14
2022-09-15T02:57:33.909Z,14.12
2022-09-15T02:58:33.904Z,14.12
2022-09-15T02:59:33.897Z,14.09
2022-09-15T03:00:33.920Z,14.07
2022-09-15T03:01:33.867Z,14.06
2022-09-15T03:02:33.852Z,14.07
2022-09-15T03:03:33.839Z,14.09
2022-09-15T03:04:33.857Z,14.10
2022-09-15T03:05:33.820Z,14.12
2022-09-15T03:06:33.824Z,14.12
2022-09-15T03:07:33.798Z,14.10
2022-09-15T03:08:33.788Z,14.10
2022-09-15T03:09:33.782Z,14.10
2022-09-15T03:10:33.762Z,14.10
2022-09-15T03:11:33.774Z,14.10
2022-09-15T03:12:33.749Z,14.09
2022-09-15T03:13:33.727Z,14.07
2022-09-15T03:14:33.719Z,14.07
2022-09-15T03:15:33.719Z,14.07
2022-09-15T03:16:33.778Z,14.07
2022-09-15T03:17:33.700Z,14.06
2022-09-15T03:18:33.680Z,14.06
2022-09-15T03:19:33.662Z,14.02
2022-09-15T03:20:33.664Z,14.02
2022-09-15T03:21:33.652Z,14.01
2022-09-15T03:22:33.651Z,14.01
2022-09-15T03:23:33.651Z,13.99
2022-09-15T03:24:33.673Z,13.99
2022-09-15T03:25:33.593Z,14.01
2022-09-15T03:26:33.588Z,13.99
2022-09-15T03:27:33.577Z,13.99
2022-09-15T03:28:33.583Z,13.96
2022-09-15T03:29:33.553Z,13.96
2022-09-15T03:30:33.538Z,13.98
2022-09-15T03:31:33.586Z,13.98
2022-09-15T03:32:33.538Z,13.96
2022-09-15T03:33:33.520Z,13.95
2022-09-15T03:34:33.490Z,13.94
2022-09-15T03:35:33.525Z,13.95
2022-09-15T03:36:33.471Z,13.95
2022-09-15T03:37:33.455Z,13.92
2022-09-15T03:38:33.471Z,13.89
2022-09-15T03:39:33.436Z,13.87
2022-09-15T03:40:33.516Z,13.83
2022-09-15T03:41:33.414Z,13.81
2022-09-15T03:42:33.404Z,13.80
2022-09-15T03:43:33.410Z,13.79
2022-09-15T03:44:33.386Z,13.80
2022-09-15T03:45:33.399Z,13.79
2022-09-15T03:46:33.353Z,13.76
2022-09-15T03:47:33.348Z,13.77
2022-09-15T03:48:33.343Z,13.74
2022-09-15T03:49:33.322Z,13.73
2022-09-15T03:50:33.312Z,13.76
2022-09-15T03:51:33.302Z,13.76
2022-09-15T03:52:33.286Z,13.76
2022-09-15T03:53:33.290Z,13.79
2022-09-15T03:54:33.268Z,13.80
2022-09-15T03:55:33.260Z,13.81
2022-09-15T03:56:33.273Z,13.84
2022-09-15T03:57:33.233Z,13.88
2022-09-15T03:58:33.216Z,13.87
2022-09-15T03:59:33.222Z,13.89
2022-09-15T04:00:33.255Z,13.89
2022-09-15T04:01:33.290Z,13.89
2022-09-15T04:02:33.172Z,13.92
2022-09-15T04:03:33.182Z,13.92
2022-09-15T04:04:33.152Z,13.92
2022-09-15T04:05:33.135Z,13.94
2022-09-15T04:06:33.131Z,13.95
2022-09-15T04:07:33.131Z,13.96
2022-09-15T04:08:33.112Z,13.98
2022-09-15T04:09:33.087Z,14.01
2022-09-15T04:10:33.228Z,14.04
2022-09-15T04:11:33.077Z,14.06
2022-09-15T04:12:33.071Z,14.06
2022-09-15T04:13:33.055Z,14.07
2022-09-15T04:14:33.051Z,14.07
2022-09-15T04:15:33.032Z,14.07
2022-09-15T04:16:33.138Z,14.09
2022-09-15T04:17:33.032Z,14.09
2022-09-15T04:18:33.015Z,14.09
2022-09-15T04:19:32.993Z,14.07
2022-09-15T04:20:32.971Z,14.09
2022-09-15T04:21:32.961Z,14.09
2022-09-15T04:22:33.909Z,14.07
2022-09-15T04:23:33.899Z,14.06
2022-09-15T04:24:33.891Z,14.07
2022-09-15T04:25:32.903Z,14.04
2022-09-15T04:26:32.906Z,14.06
2022-09-15T04:27:32.896Z,14.07
2022-09-15T04:28:32.909Z,14.06
2022-09-15T04:29:33.842Z,14.06
2022-09-15T04:30:33.824Z,14.06
2022-09-15T04:31:33.886Z,14.04
2022-09-15T04:32:32.839Z,14.02
2022-09-15T04:33:32.847Z,14.02
2022-09-15T04:34:32.816Z,14.04
2022-09-15T04:35:32.798Z,14.02
2022-09-15T04:36:32.800Z,14.02
2022-09-15T04:37:32.784Z,14.02
2022-09-15T04:38:32.779Z,14.01
2022-09-15T04:39:32.774Z,13.99
2022-09-15T04:40:32.884Z,13.98
2022-09-15T04:41:32.732Z,13.98
2022-09-15T04:42:32.728Z,13.96
2022-09-15T04:43:32.711Z,13.95
2022-09-15T04:44:32.731Z,13.96
2022-09-15T04:45:32.696Z,13.96
2022-09-15T04:46:32.735Z,13.96
2022-09-15T04:47:32.663Z,13.96
2022-09-15T04:48:32.696Z,13.98
2022-09-15T04:49:32.663Z,13.96
2022-09-15T04:50:32.650Z,13.99
2022-09-15T04:51:32.651Z,14.01
2022-09-15T04:52:32.640Z,14.06
2022-09-15T04:53:32.619Z,14.06
2022-09-15T04:54:32.616Z,14.06
2022-09-15T04:55:32.624Z,14.07
2022-09-15T04:56:32.607Z,14.09
2022-09-15T04:57:32.964Z,14.07
2022-09-15T04:58:32.595Z,14.10
2022-09-15T04:59:33.513Z,14.12
2022-09-15T05:00:33.575Z,14.10
2022-09-15T05:01:33.558Z,14.10
2022-09-15T05:02:33.560Z,14.12
2022-09-15T05:03:34.034Z,14.14
2022-09-15T05:04:32.599Z,14.14
2022-09-15T05:05:32.478Z,14.17
2022-09-15T05:06:32.458Z,14.19
2022-09-15T05:07:33.887Z,14.17
2022-09-15T05:08:32.439Z,14.19
2022-09-15T05:09:32.470Z,14.20
2022-09-15T05:10:33.465Z,14.21
2022-09-15T05:11:32.388Z,14.24
2022-09-15T05:12:32.389Z,14.24
2022-09-15T05:13:32.370Z,14.24
2022-09-15T05:14:32.384Z,14.27
2022-09-15T05:15:32.377Z,14.24
2022-09-15T05:16:32.417Z,14.21
2022-09-15T05:17:32.320Z,14.21
2022-09-15T05:18:32.316Z,14.21
2022-09-15T05:19:32.344Z,14.24
2022-09-15T05:20:32.725Z,14.24
2022-09-15T05:21:32.272Z,14.24
2022-09-15T05:22:32.264Z,14.25
2022-09-15T05:23:32.244Z,14.24
2022-09-15T05:24:32.266Z,14.24
2022-09-15T05:25:32.253Z,14.24
2022-09-15T05:26:33.210Z,14.24
2022-09-15T05:27:33.150Z,14.24
2022-09-15T05:28:32.203Z,14.25
2022-09-15T05:29:32.190Z,14.27
2022-09-15T05:30:38.782Z,14.28
2022-09-15T05:31:33.190Z,14.28
2022-09-15T05:32:33.157Z,14.29
2022-09-15T05:33:32.146Z,14.29
2022-09-15T05:34:32.149Z,14.28
2022-09-15T05:35:32.121Z,14.32
2022-09-15T05:36:32.129Z,14.31
2022-09-15T05:37:33.067Z,14.32
2022-09-15T05:38:32.111Z,14.34
2022-09-15T05:39:32.070Z,14.34
2022-09-15T05:40:32.090Z,14.34
2022-09-15T05:41:32.065Z,14.31
2022-09-15T05:42:32.039Z,14.29
2022-09-15T05:43:32.019Z,14.29
2022-09-15T05:44:32.007Z,14.29
2022-09-15T05:45:32.011Z,14.29
2022-09-15T05:46:32.101Z,14.32
2022-09-15T05:47:31.981Z,14.31
2022-09-15T05:48:31.972Z,14.34
2022-09-15T05:49:31.981Z,14.34
2022-09-15T05:50:31.954Z,14.35
2022-09-15T05:51:31.936Z,14.37
2022-09-15T05:52:31.977Z,14.38
2022-09-15T05:53:31.913Z,14.39
2022-09-15T05:54:31.914Z,14.43
2022-09-15T05:55:31.904Z,14.44
2022-09-15T05:56:31.895Z,14.46
2022-09-15T05:57:31.869Z,14.46
2022-09-15T05:58:31.863Z,14.49
2022-09-15T05:59:31.847Z,14.49
2022-09-15T06:00:31.847Z,14.49
2022-09-15T06:01:31.864Z,14.50
2022-09-15T06:02:31.868Z,14.52
2022-09-15T06:03:31.917Z,14.52
2022-09-15T06:04:31.808Z,14.52
2022-09-15T06:05:31.776Z,14.52
2022-09-15T06:06:31.764Z,14.52
2022-09-15T06:07:32.704Z,14.50
2022-09-15T06:08:32.706Z,14.50
2022-09-15T06:09:32.688Z,14.44
2022-09-15T06:10:32.666Z,14.44
2022-09-15T06:11:31.723Z,14.46
2022-09-15T06:12:31.773Z,14.46
2022-09-15T06:13:31.695Z,14.47
2022-09-15T06:14:31.672Z,14.47
2022-09-15T06:15:31.715Z,14.47
2022-09-15T06:16:31.743Z,14.49
2022-09-15T06:17:31.654Z,14.49
2022-09-15T06:18:31.641Z,14.52
2022-09-15T06:19:31.612Z,14.52
2022-09-15T06:20:32.564Z,14.53
2022-09-15T06:21:31.602Z,14.54
2022-09-15T06:22:31.704Z,14.54
2022-09-15T06:23:31.574Z,14.54
2022-09-15T06:24:31.565Z,14.56
2022-09-15T06:25:31.551Z,14.54
2022-09-15T06:26:31.552Z,14.56
2022-09-15T06:27:31.526Z,14.54
2022-09-15T06:28:31.535Z,14.56
2022-09-15T06:29:31.495Z,14.54
2022-09-15T06:30:31.498Z,14.56
2022-09-15T06:31:31.726Z,14.57
2022-09-15T06:32:31.524Z,14.56
2022-09-15T06:33:31.457Z,14.57
2022-09-15T06:34:31.449Z,14.61
2022-09-15T06:35:31.457Z,14.64
2022-09-15T06:36:31.444Z,14.67
2022-09-15T06:37:31.397Z,14.68
2022-09-15T06:38:31.406Z,14.68
2022-09-15T06:39:32.337Z,14.72
2022-09-15T06:40:32.401Z,14.74
2022-09-15T06:41:52.896Z,14.74
2022-09-15T06:42:32.370Z,14.72
2022-09-15T06:43:31.330Z,14.72
2022-09-15T06:44:31.332Z,14.72
2022-09-15T06:45:31.355Z,14.74
2022-09-15T06:46:31.405Z,14.72
2022-09-15T06:47:31.294Z,14.75
2022-09-15T06:48:31.303Z,14.78
2022-09-15T06:49:31.279Z,14.78
2022-09-15T06:50:31.289Z,14.80
2022-09-15T06:51:31.276Z,14.78
2022-09-15T06:52:31.243Z,14.80
2022-09-15T06:53:32.185Z,14.81
2022-09-15T06:54:32.177Z,14.84
2022-09-15T06:55:31.218Z,14.87
2022-09-15T06:56:34.596Z,14.87
2022-09-15T06:57:32.190Z,14.90
2022-09-15T06:58:31.175Z,14.90
2022-09-15T06:59:31.179Z,14.93
2022-09-15T07:00:31.157Z,14.98
2022-09-15T07:01:31.155Z,15.01
2022-09-15T07:02:31.286Z,15.02
2022-09-15T07:03:31.251Z,15.06
2022-09-15T07:04:31.117Z,15.09
2022-09-15T07:05:31.096Z,15.12
2022-09-15T07:06:32.029Z,15.12
2022-09-15T07:07:31.106Z,15.17
2022-09-15T07:08:31.068Z,15.17
2022-09-15T07:09:31.052Z,15.19
2022-09-15T07:10:31.043Z,15.20
2022-09-15T07:11:31.037Z,15.21
2022-09-15T07:12:31.050Z,15.21
2022-09-15T07:13:31.005Z,15.23
2022-09-15T07:14:30.994Z,15.20
2022-09-15T07:15:30.974Z,15.21
2022-09-15T07:16:31.114Z,15.20
2022-09-15T07:17:30.978Z,15.20
2022-09-15T07:18:30.951Z,15.21
2022-09-15T07:19:30.946Z,15.23
2022-09-15T07:20:30.924Z,15.24
2022-09-15T07:21:30.916Z,15.26
2022-09-15T07:22:30.919Z,15.26
2022-09-15T07:23:30.876Z,15.30
2022-09-15T07:24:30.877Z,15.31
2022-09-15T07:25:30.875Z,15.35
2022-09-15T07:26:30.850Z,15.36
2022-09-15T07:27:30.847Z,15.38
2022-09-15T07:28:30.853Z,15.39
2022-09-15T07:29:33.794Z,15.43
2022-09-15T07:30:31.811Z,15.45
2022-09-15T07:31:30.858Z,15.51
2022-09-15T07:32:30.787Z,15.54
2022-09-15T07:33:30.784Z,15.57
2022-09-15T07:34:30.773Z,15.60
2022-09-15T07:35:30.751Z,15.61
2022-09-15T07:36:30.756Z,15.66
2022-09-15T07:37:30.726Z,15.68
2022-09-15T07:38:30.710Z,15.72
2022-09-15T07:39:30.733Z,15.74
2022-09-15T07:40:30.748Z,15.78
2022-09-15T07:41:30.691Z,15.79
2022-09-15T07:42:34.745Z,15.81
2022-09-15T07:43:30.688Z,15.76
2022-09-15T07:44:30.663Z,15.79
2022-09-15T07:45:30.682Z,15.76
2022-09-15T07:46:30.643Z,15.70
2022-09-15T07:47:30.626Z,15.68
2022-09-15T07:48:30.611Z,15.67
2022-09-15T07:49:30.659Z,15.68
2022-09-15T07:50:30.592Z,15.64
2022-09-15T07:51:30.603Z,15.66
2022-09-15T07:52:30.589Z,15.67
2022-09-15T07:53:30.560Z,15.70
2022-09-15T07:54:30.551Z,15.74
2022-09-15T07:55:30.528Z,15.72
2022-09-15T07:56:30.545Z,15.74
2022-09-15T07:57:30.510Z,15.78
2022-09-15T07:58:30.517Z,15.79
2022-09-15T07:59:30.504Z,15.84
2022-09-15T08:00:30.529Z,15.88
2022-09-15T08:01:30.488Z,15.92
2022-09-15T08:02:30.462Z,15.93
2022-09-15T08:03:30.452Z,15.94
2022-09-15T08:04:30.438Z,15.96
2022-09-15T08:05:30.427Z,15.94
2022-09-15T08:06:30.441Z,15.97
2022-09-15T08:07:30.405Z,15.99
2022-09-15T08:08:30.388Z,16.00
2022-09-15T08:09:30.375Z,16.04
2022-09-15T08:10:30.399Z,16.06
2022-09-15T08:11:30.357Z,16.07
2022-09-15T08:12:30.334Z,16.09
2022-09-15T08:13:30.328Z,16.06
2022-09-15T08:14:31.304Z,16.04
2022-09-15T08:15:31.258Z,16.01
2022-09-15T08:16:30.327Z,16.03
2022-09-15T08:17:30.287Z,15.99
2022-09-15T08:18:30.274Z,15.97
2022-09-15T08:19:30.294Z,15.93
2022-09-15T08:20:30.242Z,15.89
2022-09-15T08:21:30.245Z,15.86
2022-09-15T08:22:30.231Z,15.86
2022-09-15T08:23:30.211Z,15.86
2022-09-15T08:24:30.190Z,15.82
2022-09-15T08:25:30.204Z,15.82
2022-09-15T08:26:30.203Z,15.81
2022-09-15T08:27:30.177Z,15.78
2022-09-15T08:28:30.153Z,15.76
2022-09-15T08:29:30.162Z,15.75
2022-09-15T08:30:30.137Z,15.70
2022-09-15T08:31:30.234Z,15.68
2022-09-15T08:32:30.119Z,15.66
2022-09-15T08:33:30.130Z,15.66
2022-09-15T08:34:30.099Z,15.66
2022-09-15T08:35:30.081Z,15.66
2022-09-15T08:36:31.043Z,15.67
2022-09-15T08:37:31.002Z,15.70
2022-09-15T08:38:30.041Z,15.74
2022-09-15T08:39:30.981Z,15.79
2022-09-15T08:40:31.042Z,15.82
2022-09-15T08:41:30.022Z,15.86
2022-09-15T08:42:29.992Z,15.92
2022-09-15T08:43:29.997Z,15.93
2022-09-15T08:44:29.993Z,15.96
2022-09-15T08:45:29.977Z,15.96
2022-09-15T08:46:30.009Z,15.97
2022-09-15T08:47:29.937Z,15.99
2022-09-15T08:48:29.963Z,16.00
2022-09-15T08:49:49.932Z,16.01
2022-09-15T08:50:30.916Z,16.03
2022-09-15T08:51:29.907Z,16.03
2022-09-15T08:52:29.895Z,16.04
2022-09-15T08:53:29.889Z,16.07
2022-09-15T08:54:29.877Z,16.09
2022-09-15T08:55:29.851Z,16.09
2022-09-15T08:56:29.859Z,15.97
2022-09-15T08:57:29.844Z,15.96
2022-09-15T08:58:29.830Z,15.97
2022-09-15T08:59:29.829Z,15.99
2022-09-15T09:00:29.795Z,16.00
2022-09-15T09:01:31.341Z,16.01
2022-09-15T09:02:29.885Z,16.04
2022-09-15T09:03:29.776Z,16.03
2022-09-15T09:04:29.856Z,16.06
2022-09-15T09:05:31.223Z,16.11
2022-09-15T09:06:29.786Z,16.12
2022-09-15T09:07:30.065Z,16.14
2022-09-15T09:08:30.666Z,16.18
2022-09-15T09:09:30.094Z,16.18
2022-09-15T09:10:29.865Z,16.15
2022-09-15T09:11:29.684Z,16.15
2022-09-15T09:12:29.701Z,16.15
2022-09-15T09:13:35.275Z,16.18
2022-09-15T09:14:30.659Z,16.20
2022-09-15T09:15:30.180Z,16.20
2022-09-15T09:16:30.078Z,16.14
2022-09-15T09:17:29.636Z,16.09
2022-09-15T09:18:29.802Z,16.07
2022-09-15T09:19:32.214Z,16.03
2022-09-15T09:20:29.841Z,16.01
2022-09-15T09:21:30.119Z,16.03
2022-09-15T09:22:29.877Z,16.04
2022-09-15T09:23:30.052Z,16.09
2022-09-15T09:24:29.811Z,16.15
2022-09-15T09:25:30.080Z,16.22
2022-09-15T09:26:29.849Z,16.22
2022-09-15T09:27:30.125Z,16.20
2022-09-15T09:28:29.495Z,16.22
2022-09-15T09:29:30.064Z,16.27
2022-09-15T09:30:29.489Z,16.31
2022-09-15T09:31:29.514Z,16.33
2022-09-15T09:32:29.455Z,16.33
2022-09-15T09:33:29.444Z,16.37
2022-09-15T09:34:29.412Z,16.40
2022-09-15T09:35:29.423Z,16.41
2022-09-15T09:36:29.407Z,16.45
2022-09-15T09:37:29.411Z,16.52
2022-09-15T09:38:29.388Z,16.55
2022-09-15T09:39:29.379Z,16.59
2022-09-15T09:40:29.398Z,16.59
2022-09-15T09:41:30.287Z,16.60
2022-09-15T09:42:30.313Z,16.67
2022-09-15T09:43:29.374Z,16.70
2022-09-15T09:44:29.323Z,16.71
2022-09-15T09:45:29.312Z,16.73
2022-09-15T09:46:29.357Z,16.75
2022-09-15T09:47:29.278Z,16.78
2022-09-15T09:48:29.275Z,16.78
2022-09-15T09:49:29.271Z,16.77
2022-09-15T09:50:29.249Z,16.80
2022-09-15T09:51:29.245Z,16.83
2022-09-15T09:52:29.219Z,16.80
2022-09-15T09:53:29.226Z,16.77
2022-09-15T09:54:30.164Z,16.83
2022-09-15T09:55:29.194Z,16.86
2022-09-15T09:56:29.172Z,16.92
2022-09-15T09:57:29.151Z,16.95
2022-09-15T09:58:29.185Z,16.98
2022-09-15T09:59:29.154Z,16.99
2022-09-15T10:00:29.126Z,17.03
2022-09-15T10:01:29.190Z,17.04
2022-09-15T10:02:29.097Z,17.00
2022-09-15T10:03:32.826Z,17.03
2022-09-15T10:04:29.130Z,17.03
2022-09-15T10:05:29.073Z,17.03
2022-09-15T10:06:29.059Z,17.04
2022-09-15T10:07:29.070Z,17.03
2022-09-15T10:08:29.054Z,17.03
2022-09-15T10:09:33.256Z,17.07
2022-09-15T10:10:29.007Z,17.11
2022-09-15T10:11:29.005Z,17.17
2022-09-15T10:12:29.008Z,17.22
2022-09-15T10:13:28.978Z,17.32
2022-09-15T10:14:28.976Z,17.40
2022-09-15T10:15:28.974Z,17.40
2022-09-15T10:16:29.025Z,17.44
2022-09-15T10:17:28.984Z,17.47
2022-09-15T10:18:28.925Z,17.48
2022-09-15T10:19:28.932Z,17.51
2022-09-15T10:20:28.891Z,17.54
2022-09-15T10:21:28.891Z,17.55
2022-09-15T10:22:28.890Z,17.55
2022-09-15T10:23:28.870Z,17.57
2022-09-15T10:24:28.884Z,17.66
2022-09-15T10:25:44.164Z,17.70
2022-09-15T10:26:29.826Z,17.70
2022-09-15T10:27:28.827Z,17.71
2022-09-15T10:28:28.804Z,17.57
2022-09-15T10:29:28.801Z,17.59
2022-09-15T10:30:28.796Z,17.66
2022-09-15T10:31:28.885Z,17.55
2022-09-15T10:32:28.774Z,17.57
2022-09-15T10:33:28.759Z,17.62
2022-09-15T10:34:28.748Z,17.64
2022-09-15T10:35:28.756Z,17.67
2022-09-15T10:36:28.715Z,17.69
2022-09-15T10:37:28.696Z,17.78
2022-09-15T10:38:28.710Z,17.79
2022-09-15T10:39:28.707Z,17.78
2022-09-15T10:40:28.729Z,17.84
2022-09-15T10:41:28.667Z,17.95
2022-09-15T10:42:28.653Z,17.97
2022-09-15T10:43:28.642Z,18.07
2022-09-15T10:44:28.656Z,18.13
2022-09-15T10:45:28.651Z,18.15
2022-09-15T10:46:28.603Z,18.10
2022-09-15T10:47:28.590Z,18.15
2022-09-15T10:48:28.592Z,18.03
2022-09-15T10:49:28.642Z,18.06
2022-09-15T10:50:28.614Z,18.13
2022-09-15T10:51:28.687Z,18.22
2022-09-15T10:52:28.555Z,18.25
2022-09-15T10:53:29.504Z,18.31
2022-09-15T10:54:28.775Z,18.31
2022-09-15T10:55:51.160Z,18.27
2022-09-15T10:56:29.488Z,18.17
2022-09-15T10:57:28.498Z,18.15
2022-09-15T10:58:28.666Z,18.13
2022-09-15T10:59:28.624Z,18.10
2022-09-15T11:00:28.459Z,17.97
2022-09-15T11:01:28.698Z,17.94
2022-09-15T11:02:28.506Z,17.99
2022-09-15T11:03:28.409Z,18.07
2022-09-15T11:04:28.398Z,18.22
2022-09-15T11:05:28.394Z,18.37
2022-09-15T11:06:28.387Z,18.39
2022-09-15T11:07:28.361Z,18.39
2022-09-15T11:08:28.345Z,18.33
2022-09-15T11:09:28.419Z,18.25
2022-09-15T11:10:28.333Z,18.22
2022-09-15T11:11:28.321Z,18.21
2022-09-15T11:12:29.411Z,18.19
2022-09-15T11:13:28.298Z,18.10
2022-09-15T11:14:28.305Z,18.10
2022-09-15T11:15:28.265Z,18.09
2022-09-15T11:16:28.364Z,18.04
2022-09-15T11:17:28.253Z,18.04
2022-09-15T11:18:28.368Z,17.99
2022-09-15T11:19:28.487Z,17.97
2022-09-15T11:20:28.203Z,17.97
2022-09-15T11:21:28.200Z,17.97
2022-09-15T11:22:28.205Z,17.99
2022-09-15T11:23:28.177Z,17.97
2022-09-15T11:24:28.193Z,18.02
2022-09-15T11:25:28.174Z,18.07
2022-09-15T11:26:28.134Z,18.07
2022-09-15T11:27:28.136Z,18.10
2022-09-15T11:28:28.116Z,18.12
2022-09-15T11:29:28.128Z,18.13
2022-09-15T11:30:28.219Z,18.13
2022-09-15T11:31:28.130Z,18.06
2022-09-15T11:32:29.026Z,17.91
2022-09-15T11:33:28.642Z,17.88
2022-09-15T11:34:28.189Z,17.82
2022-09-15T11:35:28.047Z,17.70
2022-09-15T11:36:28.028Z,17.63
2022-09-15T11:37:28.009Z,17.63
2022-09-15T11:38:28.000Z,17.63
2022-09-15T11:39:27.999Z,17.55
2022-09-15T11:40:28.138Z,17.55
2022-09-15T11:41:27.983Z,17.59
2022-09-15T11:42:27.963Z,17.59
2022-09-15T11:43:27.970Z,17.63
2022-09-15T11:44:27.937Z,17.62
2022-09-15T11:45:27.926Z,17.55
2022-09-15T11:46:27.951Z,17.57
2022-09-15T11:47:27.898Z,17.59
2022-09-15T11:48:27.898Z,17.54
2022-09-15T11:49:27.898Z,17.55
2022-09-15T11:50:27.911Z,17.44
2022-09-15T11:51:27.860Z,17.36
2022-09-15T11:52:27.850Z,17.41
2022-09-15T11:53:27.826Z,17.35
2022-09-15T11:54:31.063Z,17.35
2022-09-15T11:55:27.808Z,17.41
2022-09-15T11:56:27.802Z,17.47
2022-09-15T11:57:27.788Z,17.50
2022-09-15T11:58:27.776Z,17.62
2022-09-15T11:59:27.782Z,17.67
2022-09-15T12:00:27.770Z,17.73
2022-09-15T12:01:27.835Z,17.78
2022-09-15T12:02:27.857Z,17.84
2022-09-15T12:03:27.725Z,17.87
2022-09-15T12:04:27.746Z,17.88
2022-09-15T12:05:27.708Z,17.92
2022-09-15T12:06:27.750Z,17.89
2022-09-15T12:07:27.698Z,17.84
2022-09-15T12:08:27.678Z,17.85
2022-09-15T12:09:27.690Z,17.89
2022-09-15T12:10:27.696Z,17.89
2022-09-15T12:11:27.694Z,17.94
2022-09-15T12:12:30.697Z,17.97
2022-09-15T12:13:27.661Z,17.95
2022-09-15T12:14:27.597Z,17.97
2022-09-15T12:15:27.715Z,17.97
2022-09-15T12:16:27.569Z,17.92
2022-09-15T12:17:27.557Z,17.88
2022-09-15T12:18:38.547Z,17.85
2022-09-15T12:19:28.535Z,17.81
2022-09-15T12:20:27.596Z,17.76
2022-09-15T12:21:27.515Z,17.76
2022-09-15T12:22:27.519Z,17.73
2022-09-15T12:23:27.706Z,17.67
2022-09-15T12:24:27.487Z,17.64
2022-09-15T12:25:27.492Z,17.63
2022-09-15T12:26:27.467Z,17.62
2022-09-15T12:27:27.477Z,17.63
2022-09-15T12:28:27.893Z,17.66
2022-09-15T12:29:27.438Z,17.66
2022-09-15T12:30:27.439Z,17.71
2022-09-15T12:31:27.492Z,17.76
2022-09-15T12:32:27.406Z,17.85
2022-09-15T12:33:27.387Z,17.88
2022-09-15T12:34:27.374Z,17.91
2022-09-15T12:35:27.823Z,17.97
2022-09-15T12:36:27.394Z,17.99
2022-09-15T12:37:27.322Z,18.02
2022-09-15T12:38:27.351Z,18.03
2022-09-15T12:39:27.384Z,18.02
2022-09-15T12:40:27.436Z,18.03
2022-09-15T12:41:27.304Z,18.00
2022-09-15T12:42:27.384Z,18.06
2022-09-15T12:43:27.353Z,18.07
2022-09-15T12:44:27.257Z,18.09
2022-09-15T12:45:27.255Z,18.13
2022-09-15T12:46:27.283Z,18.18
2022-09-15T12:47:27.247Z,18.19
2022-09-15T12:48:27.214Z,18.18
2022-09-15T12:49:27.221Z,18.24
2022-09-15T12:50:27.198Z,18.27
2022-09-15T12:51:27.176Z,18.28
2022-09-15T12:52:27.183Z,18.33